Time;durP1;ratioP1;P1;durP2;ratioP2;P2;SDS_P1;SDS_P2;PMS_P1;PMS_P2;Temp;Humidity;BMP_temperature;BMP_pressure;BME280_temperature;BME280_humidity;BME280_pressure;Samples;Min_cycle;Max_cycle;Signal;HPM_P1;HPM_P2
2022/04/07 00:00:56;;;;;;;4.63;2.50;;;15.00;96.50;;;;;;5082725;28;20036;-65
2022/04/07 00:03:21;;;;;;;7.45;2.60;;;14.90;96.60;;;;;;5074793;28;20059;-62
2022/04/07 00:05:47;;;;;;;4.47;2.35;;;14.80;96.50;;;;;;5082397;28;20159;-65
2022/04/07 00:08:13;;;;;;;6.90;2.45;;;14.90;96.50;;;;;;5083923;28;20048;-62
2022/04/07 00:10:39;;;;;;;5.43;2.75;;;15.10;96.80;;;;;;5088165;28;20119;-63
2022/04/07 00:13:05;;;;;;;6.57;2.88;;;;;;;;;;5088254;28;20165;-66
2022/04/07 00:15:31;;;;;;;5.88;2.40;;;14.60;95.40;;;;;;5090969;28;20545;-69
2022/04/07 00:17:57;;;;;;;4.88;2.60;;;14.60;96.50;;;;;;5082695;28;20174;-67
2022/04/07 00:20:26;;;;;;;5.03;2.40;;;14.80;96.50;;;;;;5091870;28;20044;-63
2022/04/07 00:22:53;;;;;;;5.15;2.40;;;14.70;96.50;;;;;;5092798;28;20042;-62
2022/04/07 00:25:18;;;;;;;4.50;2.30;;;14.90;96.50;;;;;;5082754;28;20521;-62
2022/04/07 00:27:44;;;;;;;6.35;2.63;;;14.90;96.50;;;;;;5090447;28;20174;-62
2022/04/07 00:30:13;;;;;;;6.57;3.20;;;14.80;96.50;;;;;;5078263;28;20397;-63
2022/04/07 00:32:42;;;;;;;4.80;2.53;;;14.80;96.60;;;;;;5073625;28;20114;-62
2022/04/07 00:35:08;;;;;;;5.32;2.42;;;;;;;;;;5086073;28;20131;-65
2022/04/07 00:37:34;;;;;;;5.20;2.28;;;14.90;96.50;;;;;;5079636;28;20386;-62
2022/04/07 00:40:00;;;;;;;5.38;2.80;;;15.00;96.80;;;;;;5083954;28;20097;-62
2022/04/07 00:42:26;;;;;;;9.02;2.85;;;15.10;96.50;;;;;;5091151;28;20032;-62
2022/04/07 00:44:52;;;;;;;5.90;2.47;;;15.10;96.60;;;;;;5085209;28;20445;-62
2022/04/07 00:47:18;;;;;;;4.63;2.45;;;14.80;96.50;;;;;;5088277;28;20044;-62
2022/04/07 00:49:43;;;;;;;5.93;2.30;;;15.00;96.40;;;;;;5090881;28;20062;-63
2022/04/07 00:52:09;;;;;;;5.53;2.40;;;15.10;96.60;;;;;;5081125;28;20044;-62
2022/04/07 00:54:35;;;;;;;5.30;2.30;;;14.80;96.50;;;;;;5081483;28;20040;-64
2022/04/07 00:57:01;;;;;;;4.95;2.10;;;;;;;;;;5092892;28;20050;-65
2022/04/07 00:59:27;;;;;;;6.15;2.75;;;14.90;96.50;;;;;;5083401;28;20047;-65
2022/04/07 01:01:53;;;;;;;5.13;2.05;;;15.00;96.40;;;;;;5079323;28;20363;-64
2022/04/07 01:04:18;;;;;;;6.38;2.50;;;14.80;96.40;;;;;;5080761;28;20044;-65
2022/04/07 01:06:47;;;;;;;5.47;1.88;;;14.90;96.30;;;;;;5058553;28;20500;-63
2022/04/07 01:09:14;;;;;;;6.60;2.08;;;15.00;96.40;;;;;;5083166;28;20194;-62
2022/04/07 01:11:40;;;;;;;4.97;1.60;;;14.90;96.30;;;;;;5075300;28;20067;-62
2022/04/07 01:14:06;;;;;;;5.95;1.73;;;14.60;96.20;;;;;;5073714;28;20024;-65
2022/04/07 01:16:32;;;;;;;5.07;2.00;;;15.00;96.40;;;;;;5089990;28;20519;-63
2022/04/07 01:18:59;;;;;;;4.07;2.00;;;;;;;;;;5085983;28;20032;-66
2022/04/07 01:21:26;;;;;;;4.38;1.52;;;14.80;96.30;;;;;;5073367;28;20048;-63
2022/04/07 01:23:59;;;;;;;5.70;1.70;;;14.90;96.30;;;;;;5073988;28;20379;-65
2022/04/07 01:26:24;;;;;;;4.65;1.77;;;15.00;96.40;;;;;;5078515;28;20045;-63
2022/04/07 01:28:50;;;;;;;4.95;2.10;;;14.70;95.20;;;;;;5054823;28;20521;-63
2022/04/07 01:31:16;;;;;;;5.32;1.77;;;;;;;;;;5083934;28;20371;-63
2022/04/07 01:33:42;;;;;;;5.63;2.17;;;14.90;96.30;;;;;;5076182;28;20048;-64
2022/04/07 01:36:09;;;;;;;7.00;2.10;;;;;;;;;;5064287;28;20393;-63
2022/04/07 01:38:35;;;;;;;6.15;1.85;;;15.00;96.40;;;;;;5087908;28;20477;-63
2022/04/07 01:41:00;;;;;;;5.22;1.88;;;15.00;95.20;;;;;;5054944;28;20123;-62
2022/04/07 01:43:26;;;;;;;3.70;1.88;;;14.80;96.30;;;;;;5073628;28;20127;-63
2022/04/07 01:45:52;;;;;;;4.53;1.70;;;15.00;96.30;;;;;;5074088;28;20093;-63
2022/04/07 01:48:17;;;;;;;2.95;1.33;;;14.90;96.20;;;;;;5073528;28;20401;-63
2022/04/07 01:50:43;;;;;;;5.47;1.70;;;15.00;96.30;;;;;;5091780;28;20036;-63
2022/04/07 01:53:09;;;;;;;5.78;2.00;;;14.50;96.20;;;;;;5075253;28;20087;-62
2022/04/07 01:55:35;;;;;;;3.45;1.52;;;15.00;96.20;;;;;;5075355;28;20470;-63
2022/04/07 01:58:01;;;;;;;4.22;1.55;;;;;;;;;;5041660;28;20062;-63
2022/04/07 02:00:27;;;;;;;4.55;1.48;;;15.20;96.30;;;;;;5076398;28;20047;-63
2022/04/07 02:02:53;;;;;;;3.38;1.58;;;;;;;;;;5085386;28;20043;-63
2022/04/07 02:05:19;;;;;;;4.70;1.60;;;14.80;96.30;;;;;;5086005;28;20048;-64
2022/04/07 02:07:45;;;;;;;5.57;1.67;;;;;;;;;;5082050;28;20050;-65
2022/04/07 02:10:11;;;;;;;4.13;1.58;;;14.80;96.10;;;;;;5083030;28;20040;-63
2022/04/07 02:12:39;;;;;;;4.40;1.65;;;14.80;96.20;;;;;;5076473;28;20052;-62
2022/04/07 02:15:05;;;;;;;4.45;1.50;;;14.80;96.10;;;;;;5088566;28;20036;-67
2022/04/07 02:17:32;;;;;;;3.10;1.40;;;14.80;96.20;;;;;;5077675;28;20094;-62
2022/04/07 02:19:58;;;;;;;3.47;2.03;;;;;;;;;;5083247;28;20043;-63
2022/04/07 02:22:28;;;;;;;5.18;1.65;;;;;;;;;;5091233;28;20040;-64
2022/04/07 02:24:57;;;;;;;2.92;1.45;;;14.80;95.10;;;;;;5092939;28;20040;-63
2022/04/07 02:27:23;;;;;;;4.63;1.85;;;15.10;96.30;;;;;;5080540;28;20147;-65
2022/04/07 02:29:49;;;;;;;6.75;2.15;;;14.90;95.10;;;;;;5075350;28;20530;-63
2022/04/07 02:32:15;;;;;;;3.45;1.60;;;15.00;96.30;;;;;;5088827;28;20081;-63
2022/04/07 02:34:41;;;;;;;3.92;1.80;;;14.70;96.40;;;;;;5092394;28;20078;-63
2022/04/07 02:37:07;;;;;;;5.43;2.17;;;;;;;;;;5090407;28;20460;-63
2022/04/07 02:39:33;;;;;;;5.95;2.05;;;14.80;96.30;;;;;;5084694;28;20091;-62
2022/04/07 02:41:58;;;;;;;5.70;2.08;;;14.90;96.40;;;;;;5096198;28;20040;-63
2022/04/07 02:44:24;;;;;;;6.65;2.05;;;15.00;96.40;;;;;;5086134;28;20044;-64
2022/04/07 02:46:50;;;;;;;5.78;2.45;;;14.70;96.20;;;;;;5074434;28;20059;-62
2022/04/07 02:49:17;;;;;;;6.60;2.10;;;;;;;;;;5082802;28;20048;-65
2022/04/07 02:51:43;;;;;;;6.55;2.42;;;14.90;96.40;;;;;;5078533;28;20082;-62
2022/04/07 02:54:09;;;;;;;5.07;1.92;;;14.70;96.30;;;;;;5087920;28;20406;-62
2022/04/07 02:56:35;;;;;;;5.95;2.08;;;14.70;96.40;;;;;;5095588;28;20040;-63
2022/04/07 02:59:01;;;;;;;7.07;2.15;;;14.50;96.10;;;;;;5095660;28;20044;-63
2022/04/07 03:01:26;;;;;;;5.15;2.00;;;14.60;96.20;;;;;;5089917;28;20040;-62
2022/04/07 03:03:55;;;;;;;7.38;2.55;;;14.90;96.30;;;;;;5086682;28;20139;-62
2022/04/07 03:06:21;;;;;;;6.78;2.25;;;;;;;;;;5084814;28;20055;-65
2022/04/07 03:08:47;;;;;;;8.27;2.33;;;14.90;96.20;;;;;;5081753;28;20181;-63
2022/04/07 03:11:13;;;;;;;7.05;2.28;;;14.80;96.10;;;;;;5094331;28;20107;-63
2022/04/07 03:13:39;;;;;;;7.55;2.88;;;;;;;;;;5075614;28;20056;-62
2022/04/07 03:16:06;;;;;;;6.90;2.00;;;14.80;96.30;;;;;;5084248;28;20040;-63
2022/04/07 03:18:32;;;;;;;7.97;2.38;;;15.00;96.20;;;;;;5091679;28;20048;-62
2022/04/07 03:20:58;;;;;;;6.50;2.10;;;14.70;96.20;;;;;;5075739;28;20071;-70
2022/04/07 03:23:24;;;;;;;5.43;2.05;;;14.90;95.20;;;;;;5092382;28;20115;-66
2022/04/07 03:25:50;;;;;;;6.38;2.15;;;14.50;96.20;;;;;;5092831;28;20086;-62
2022/04/07 03:28:16;;;;;;;6.03;2.00;;;;;;;;;;5078582;28;20080;-63
2022/04/07 03:30:42;;;;;;;9.40;2.70;;;14.70;95.10;;;;;;5085032;28;20052;-64
2022/04/07 03:33:08;;;;;;;8.02;2.33;;;14.80;96.20;;;;;;5070730;28;20455;-63
2022/04/07 03:35:34;;;;;;;8.98;2.67;;;14.90;96.10;;;;;;5084642;28;20036;-62
2022/04/07 03:37:59;;;;;;;7.72;2.28;;;14.70;95.20;;;;;;5093974;28;20044;-62
2022/04/07 03:40:25;;;;;;;8.32;2.20;;;14.60;96.10;;;;;;5088794;28;20047;-62
2022/04/07 03:42:52;;;;;;;9.27;2.63;;;14.70;96.10;;;;;;5091539;28;20040;-62
2022/04/07 03:45:18;;;;;;;8.77;2.10;;;14.80;96.20;;;;;;5094633;28;20047;-62
2022/04/07 03:47:43;;;;;;;8.85;2.30;;;14.70;96.20;;;;;;5093679;28;20123;-62
2022/04/07 03:50:09;;;;;;;7.65;2.15;;;14.70;96.30;;;;;;5093847;28;20191;-62
2022/04/07 03:52:36;;;;;;;7.95;2.53;;;;;;;;;;5073581;28;20067;-62
2022/04/07 03:55:06;;;;;;;9.07;2.95;;;14.60;96.10;;;;;;5073937;28;20044;-62
2022/04/07 03:57:32;;;;;;;9.05;2.38;;;14.50;96.10;;;;;;5064948;28;20115;-62
2022/04/07 03:59:57;;;;;;;6.60;2.10;;;14.50;95.10;;;;;;5075500;28;20144;-63
2022/04/07 04:02:23;;;;;;;8.80;2.10;;;14.60;96.20;;;;;;5079164;28;20051;-62
2022/04/07 04:04:49;;;;;;;7.40;2.42;;;14.40;96.20;;;;;;5080735;28;20387;-63
2022/04/07 04:07:15;;;;;;;6.65;2.10;;;14.70;96.30;;;;;;5083450;28;20482;-62
2022/04/07 04:09:40;;;;;;;7.97;2.20;;;14.10;96.20;;;;;;5074608;28;20045;-62
2022/04/07 04:12:07;;;;;;;9.05;2.13;;;14.40;96.30;;;;;;5077116;28;20060;-62
2022/04/07 04:14:33;;;;;;;5.57;1.73;;;;;;;;;;5090784;28;20075;-62
2022/04/07 04:16:59;;;;;;;6.65;2.10;;;14.40;94.80;;;;;;5082921;28;20485;-63
2022/04/07 04:19:25;;;;;;;5.68;1.88;;;14.50;95.50;;;;;;5091464;28;20054;-62
2022/04/07 04:21:51;;;;;;;6.03;1.90;;;14.60;96.50;;;;;;5073824;28;20430;-62
2022/04/07 04:24:17;;;;;;;5.28;1.90;;;;;;;;;;5090997;28;20406;-62
2022/04/07 04:26:43;;;;;;;8.00;1.95;;;14.50;96.70;;;;;;5091443;28;20124;-62
2022/04/07 04:29:08;;;;;;;8.75;2.47;;;14.40;96.50;;;;;;5088012;28;20128;-62
2022/04/07 04:31:34;;;;;;;7.88;1.90;;;14.70;96.70;;;;;;5093335;28;20040;-62
2022/04/07 04:34:00;;;;;;;6.45;2.05;;;14.50;96.40;;;;;;5079002;28;20473;-62
2022/04/07 04:36:26;;;;;;;5.07;1.60;;;14.60;96.60;;;;;;5079016;28;20048;-63
2022/04/07 04:38:52;;;;;;;8.18;1.92;;;;;;;;;;5091937;28;20036;-64
2022/04/07 04:41:18;;;;;;;9.90;2.55;;;;;;;;;;5082559;28;20040;-63
2022/04/07 04:43:47;;;;;;;6.10;2.08;;;14.60;96.30;;;;;;5074840;28;20072;-62
2022/04/07 04:46:13;;;;;;;6.55;2.38;;;14.70;96.50;;;;;;5073621;28;20052;-62
2022/04/07 04:48:39;;;;;;;6.75;1.95;;;;;;;;;;5092022;28;20048;-62
2022/04/07 04:51:05;;;;;;;8.18;2.00;;;14.30;96.40;;;;;;5092343;28;20094;-62
2022/04/07 04:53:31;;;;;;;7.07;2.00;;;14.60;96.40;;;;;;5091254;28;20043;-62
2022/04/07 04:55:56;;;;;;;6.88;1.80;;;14.50;95.40;;;;;;5075252;28;20051;-62
2022/04/07 04:58:23;;;;;;;9.43;2.30;;;14.20;96.20;;;;;;5074558;28;20033;-61
2022/04/07 05:00:48;;;;;;;10.63;2.33;;;14.60;96.40;;;;;;5077390;28;20073;-62
2022/04/07 05:03:14;;;;;;;10.15;2.47;;;14.70;96.50;;;;;;5085082;28;20071;-62
2022/04/07 05:05:40;;;;;;;9.20;2.42;;;;;;;;;;5083637;28;20048;-62
2022/04/07 05:08:06;;;;;;;8.80;3.10;;;14.50;96.40;;;;;;5090841;28;20081;-62
2022/04/07 05:10:32;;;;;;;8.05;2.30;;;14.60;96.40;;;;;;5092188;28;20178;-62
2022/04/07 05:13:01;;;;;;;10.43;2.60;;;14.70;96.50;;;;;;5091257;28;20532;-62
2022/04/07 05:15:27;;;;;;;8.07;2.58;;;14.60;96.40;;;;;;5090112;28;20032;-62
2022/04/07 05:17:53;;;;;;;7.55;2.40;;;14.60;96.40;;;;;;5092170;28;20054;-63
2022/04/07 05:20:18;;;;;;;7.82;2.20;;;14.60;95.50;;;;;;5093112;28;20123;-62
2022/04/07 05:22:45;;;;;;;10.30;2.40;;;;;;;;;;5091611;28;20036;-63
2022/04/07 05:25:10;;;;;;;10.88;2.40;;;14.40;96.40;;;;;;5073403;28;20437;-62
2022/04/07 05:27:37;;;;;;;9.57;2.65;;;14.70;96.60;;;;;;5074251;28;20049;-63
2022/04/07 05:30:13;;;;;;;9.65;2.35;;;14.50;96.30;;;;;;5095777;28;20399;-62
2022/04/07 05:32:39;;;;;;;8.38;2.55;;;14.60;95.40;;;;;;5087795;28;20127;-62
2022/04/07 05:35:05;;;;;;;9.68;2.50;;;14.50;96.50;;;;;;5077285;28;20040;-64
2022/04/07 05:37:31;;;;;;;10.45;2.60;;;14.70;95.50;;;;;;5084771;28;20047;-63
2022/04/07 05:39:57;;;;;;;9.20;2.65;;;14.60;96.40;;;;;;5083470;28;20049;-63
2022/04/07 05:42:23;;;;;;;8.45;2.10;;;14.60;96.30;;;;;;5089864;28;20044;-63
2022/04/07 05:44:49;;;;;;;6.25;1.60;;;;;;;;;;5077745;28;20045;-62
2022/04/07 05:47:15;;;;;;;9.38;1.92;;;14.60;96.30;;;;;;5087116;28;20136;-63
2022/04/07 05:49:41;;;;;;;5.63;1.45;;;;;;;;;;5088180;28;20051;-63
2022/04/07 05:52:07;;;;;;;8.23;2.38;;;14.80;96.30;;;;;;5074697;28;20040;-62
2022/04/07 05:54:33;;;;;;;5.22;1.77;;;;;;;;;;5087195;28;20122;-62
2022/04/07 05:56:59;;;;;;;4.93;1.95;;;14.90;96.10;;;;;;5083778;28;20501;-63
2022/04/07 05:59:24;;;;;;;5.32;1.90;;;14.80;96.00;;;;;;5079837;28;20093;-62
2022/04/07 06:01:50;;;;;;;7.70;1.65;;;14.60;96.00;;;;;;5087951;28;20101;-62
2022/04/07 06:04:16;;;;;;;6.97;1.55;;;14.90;95.90;;;;;;5076708;28;20055;-63
2022/04/07 06:06:43;;;;;;;6.47;1.92;;;;;;;;;;5094142;28;20571;-64
2022/04/07 06:09:09;;;;;;;5.72;1.58;;;14.90;95.60;;;;;;5081692;28;20386;-63
2022/04/07 06:11:35;;;;;;;6.90;1.55;;;14.90;95.70;;;;;;5081554;28;20046;-63
2022/04/07 06:14:01;;;;;;;4.40;1.50;;;14.90;95.60;;;;;;5076700;28;20036;-71
2022/04/07 06:16:27;;;;;;;5.53;1.70;;;15.00;95.70;;;;;;5084763;28;20106;-68
2022/04/07 06:18:54;;;;;;;6.13;1.67;;;;;;;;;;5082524;28;20040;-63
2022/04/07 06:21:20;;;;;;;4.82;1.30;;;15.00;95.60;;;;;;5081784;28;20052;-63
2022/04/07 06:23:46;;;;;;;3.95;1.40;;;;;;;;;;5095564;28;20040;-66
2022/04/07 06:26:12;;;;;;;5.28;1.92;;;15.00;95.60;;;;;;5085364;28;20083;-64
2022/04/07 06:28:40;;;;;;;6.78;1.80;;;;;;;;;;5082670;28;20068;-63
2022/04/07 06:31:06;;;;;;;4.72;1.45;;;15.10;95.50;;;;;;5089674;28;20050;-65
2022/04/07 06:33:33;;;;;;;5.30;1.35;;;;;;;;;;5076536;28;20044;-65
2022/04/07 06:35:59;;;;;;;3.60;1.10;;;15.30;95.50;;;;;;5075887;28;20036;-63
2022/04/07 06:38:24;;;;;;;3.92;1.20;;;15.10;95.40;;;;;;5092970;28;20070;-63
2022/04/07 06:40:50;;;;;;;2.53;0.82;;;15.00;94.10;;;;;;5086184;28;20482;-64
2022/04/07 06:43:16;;;;;;;5.55;1.48;;;15.20;95.30;;;;;;5084547;28;20046;-63
2022/04/07 06:45:41;;;;;;;5.75;1.50;;;15.00;94.00;;;;;;5077464;28;20040;-63
2022/04/07 06:48:08;;;;;;;4.88;1.40;;;15.00;95.20;;;;;;5082450;28;20055;-63
2022/04/07 06:50:33;;;;;;;3.65;1.10;;;15.10;95.10;;;;;;5057812;28;20098;-63
2022/04/07 06:53:00;;;;;;;5.35;1.08;;;15.10;95.10;;;;;;5093341;28;20059;-63
2022/04/07 06:55:28;;;;;;;4.22;1.50;;;;;;;;;;5093289;28;20485;-63
2022/04/07 06:58:01;;;;;;;5.63;1.15;;;14.90;95.00;;;;;;5094553;28;20052;-64
2022/04/07 07:00:44;;;;;;;3.22;0.90;;;15.10;95.00;;;;;;5095057;28;20055;-64
2022/04/07 07:03:10;;;;;;;3.50;0.85;;;14.90;94.90;;;;;;5090865;28;20478;-63
2022/04/07 07:05:36;;;;;;;2.90;0.80;;;15.00;94.90;;;;;;5087512;28;20048;-63
2022/04/07 07:08:12;;;;;;;2.67;1.00;;;14.90;93.00;;;;;;5075261;28;20084;-63
2022/04/07 07:10:38;;;;;;;3.55;0.90;;;14.90;94.80;;;;;;5075026;28;20044;-63
2022/04/07 07:13:04;;;;;;;2.38;0.80;;;15.00;94.80;;;;;;5076955;28;20371;-62
2022/04/07 07:15:29;;;;;;;4.05;1.10;;;14.70;94.60;;;;;;5074258;28;20381;-62
2022/04/07 07:17:56;;;;;;;4.25;1.20;;;;;;;;;;5075073;28;20048;-63
2022/04/07 07:20:21;;;;;;;3.17;0.90;;;14.70;94.60;;;;;;5074861;28;20037;-62
2022/04/07 07:22:47;;;;;;;3.65;0.90;;;;;;;;;;5077026;28;20119;-64
2022/04/07 07:25:14;;;;;;;2.47;0.80;;;14.30;93.80;;;;;;5095050;28;20040;-63
2022/04/07 07:27:41;;;;;;;3.42;1.02;;;;;;;;;;5095387;28;20386;-62
2022/04/07 07:30:10;;;;;;;3.05;0.88;;;14.70;94.60;;;;;;5094578;28;20040;-65
2022/04/07 07:32:40;;;;;;;3.10;0.82;;;14.30;94.50;;;;;;5094623;28;20048;-62
2022/04/07 07:35:06;;;;;;;4.57;0.95;;;14.70;94.50;;;;;;5078459;28;20119;-64
2022/04/07 07:37:32;;;;;;;2.63;0.82;;;14.60;94.50;;;;;;5084986;28;20036;-62
2022/04/07 07:40:03;;;;;;;1.95;0.77;;;;;;;;;;5083323;28;20546;-63
2022/04/07 07:42:29;;;;;;;2.55;0.60;;;14.50;93.60;;;;;;5091072;28;20152;-63
2022/04/07 07:44:55;;;;;;;1.75;0.80;;;14.50;94.40;;;;;;5091267;28;20040;-65
2022/04/07 07:47:21;;;;;;;4.97;0.90;;;14.60;94.50;;;;;;5094344;28;20054;-62
2022/04/07 07:49:46;;;;;;;4.93;0.77;;;14.30;94.40;;;;;;5094485;28;20138;-64
2022/04/07 07:52:12;;;;;;;2.13;0.80;;;14.60;94.40;;;;;;5093041;28;20043;-64
2022/04/07 07:54:38;;;;;;;2.17;0.80;;;14.40;94.30;;;;;;5091434;28;20032;-62
2022/04/07 07:57:04;;;;;;;4.10;0.85;;;14.40;94.30;;;;;;5082461;28;20079;-66
2022/04/07 07:59:29;;;;;;;1.50;0.50;;;14.10;94.20;;;;;;5074091;28;20056;-64
2022/04/07 08:01:55;;;;;;;2.92;0.73;;;14.10;94.20;;;;;;5073572;28;20040;-63
2022/04/07 08:04:21;;;;;;;1.88;0.73;;;14.50;94.20;;;;;;5084395;28;20059;-63
2022/04/07 08:06:47;;;;;;;2.75;1.02;;;14.40;94.30;;;;;;5078999;28;20059;-67
2022/04/07 08:09:14;;;;;;;3.28;0.75;;;14.50;94.20;;;;;;5091372;28;20037;-63
2022/04/07 08:11:41;;;;;;;4.00;0.77;;;14.50;94.20;;;;;;5093776;28;20048;-64
2022/04/07 08:14:07;;;;;;;2.60;0.70;;;14.40;94.10;;;;;;5092485;28;20398;-64
2022/04/07 08:16:34;;;;;;;2.42;0.70;;;14.60;94.10;;;;;;5087757;28;20437;-63
2022/04/07 08:18:59;;;;;;;1.75;0.68;;;14.70;94.10;;;;;;5073411;28;20502;-63
2022/04/07 08:21:25;;;;;;;2.97;0.93;;;;;;;;;;5073703;28;20047;-63
2022/04/07 08:23:52;;;;;;;1.63;0.60;;;;;;;;;;5073776;28;20037;-66
2022/04/07 08:26:18;;;;;;;2.90;0.60;;;;;;;;;;5072005;28;20055;-67
2022/04/07 08:28:43;;;;;;;2.55;0.60;;;14.60;93.90;;;;;;5091683;28;20461;-62
2022/04/07 08:31:09;;;;;;;2.17;0.60;;;14.60;93.80;;;;;;5081001;28;20151;-63
2022/04/07 08:33:35;;;;;;;3.17;0.60;;;14.60;93.80;;;;;;5071838;28;20102;-63
2022/04/07 08:36:00;;;;;;;1.73;0.60;;;14.70;93.80;;;;;;5073389;28;20068;-64
2022/04/07 08:38:26;;;;;;;5.22;0.90;;;14.80;92.20;;;;;;5074727;28;20044;-62
2022/04/07 08:40:52;;;;;;;4.00;0.80;;;14.60;93.10;;;;;;5073792;28;20052;-64
2022/04/07 08:43:18;;;;;;;2.28;0.55;;;14.80;93.40;;;;;;5092491;28;20071;-63
2022/04/07 08:45:44;;;;;;;3.72;1.00;;;14.50;93.40;;;;;;5057023;28;20051;-67
2022/04/07 08:48:11;;;;;;;4.75;1.13;;;14.70;93.40;;;;;;5080845;28;20090;-63
2022/04/07 08:50:39;;;;;;;4.55;0.90;;;14.50;93.30;;;;;;5073281;28;20048;-63
2022/04/07 08:53:06;;;;;;;3.35;0.75;;;14.70;91.60;;;;;;5055126;28;20825;-66
2022/04/07 08:55:32;;;;;;;4.00;1.08;;;;;;;;;;5073473;28;20402;-65
2022/04/07 08:57:58;;;;;;;3.35;0.80;;;14.80;93.10;;;;;;5073380;28;20387;-63
2022/04/07 09:00:23;;;;;;;3.53;0.90;;;15.10;93.10;;;;;;5087271;28;20059;-63
2022/04/07 09:02:50;;;;;;;3.42;1.00;;;;;;;;;;5091887;28;20097;-63
2022/04/07 09:05:17;;;;;;;5.32;1.15;;;15.40;92.90;;;;;;5078890;28;20131;-64
2022/04/07 09:07:43;;;;;;;5.53;1.13;;;15.50;93.00;;;;;;5087404;28;20063;-62
2022/04/07 09:10:09;;;;;;;1.95;0.57;;;15.60;92.90;;;;;;5044086;28;20040;-62
2022/04/07 09:12:38;;;;;;;3.33;1.00;;;15.80;92.90;;;;;;5072912;28;20044;-62
2022/04/07 09:15:04;;;;;;;2.65;1.05;;;15.80;92.80;;;;;;5077846;28;20046;-62
2022/04/07 09:17:30;;;;;;;4.35;1.05;;;15.80;91.10;;;;;;5093088;28;20048;-62
2022/04/07 09:19:56;;;;;;;2.45;0.85;;;16.20;92.70;;;;;;5091735;28;20392;-62
2022/04/07 09:22:30;;;;;;;5.43;1.05;;;16.00;91.40;;;;;;5078255;28;20048;-64
2022/04/07 09:24:55;;;;;;;2.63;0.68;;;16.20;91.70;;;;;;5072729;28;20110;-64
2022/04/07 09:27:21;;;;;;;3.58;0.85;;;16.00;92.50;;;;;;5071464;28;20386;-64
2022/04/07 09:29:47;;;;;;;3.50;1.08;;;16.60;91.10;;;;;;5072729;28;20045;-62
2022/04/07 09:32:20;;;;;;;2.78;0.80;;;16.50;91.30;;;;;;5072439;28;20063;-65
2022/04/07 09:35:06;;;;;;;4.32;1.02;;;16.50;92.40;;;;;;5071788;28;20450;-62
2022/04/07 09:37:32;;;;;;;2.42;0.98;;;;;;;;;;5057380;28;20045;-64
2022/04/07 09:40:07;;;;;;;2.67;0.75;;;16.40;92.30;;;;;;5073175;28;20410;-62
2022/04/07 09:42:33;;;;;;;2.78;0.73;;;16.50;92.30;;;;;;5071374;28;20036;-63
2022/04/07 09:45:01;;;;;;;5.00;1.17;;;16.70;92.20;;;;;;5084172;28;20229;-64
2022/04/07 09:47:46;;;;;;;4.15;1.10;;;16.40;90.40;;;;;;5092842;28;20040;-63
2022/04/07 09:50:29;;;;;;;3.90;0.90;;;16.20;90.40;;;;;;5092704;28;20040;-65
2022/04/07 09:52:58;;;;;;;3.38;0.82;;;;;;;;;;5092379;28;20048;-62
2022/04/07 09:55:35;;;;;;;3.65;1.40;;;16.40;92.20;;;;;;5091976;28;20115;-63
2022/04/07 09:58:03;;;;;;;3.45;0.85;;;16.30;92.10;;;;;;5092923;28;20121;-62
2022/04/07 10:00:29;;;;;;;3.15;1.00;;;16.40;92.20;;;;;;5091357;28;20044;-63
2022/04/07 10:02:57;;;;;;;3.55;1.08;;;16.20;90.20;;;;;;5092643;28;20123;-64
2022/04/07 10:05:24;;;;;;;4.53;1.02;;;16.20;92.20;;;;;;5092266;28;20494;-66
2022/04/07 10:07:50;;;;;;;3.10;1.00;;;16.10;92.00;;;;;;5091359;28;20052;-65
2022/04/07 10:10:18;;;;;;;3.58;1.30;;;16.40;92.00;;;;;;5092357;28;20484;-63
2022/04/07 10:12:47;;;;;;;4.85;1.30;;;16.30;91.90;;;;;;5083601;28;20051;-63
2022/04/07 10:15:14;;;;;;;4.88;1.20;;;16.30;92.10;;;;;;5075868;28;20127;-71
2022/04/07 10:17:40;;;;;;;6.40;1.40;;;16.40;92.10;;;;;;5096433;28;20048;-70
2022/04/07 10:20:10;;;;;;;5.75;1.38;;;16.40;91.20;;;;;;5095951;28;20423;-67
2022/04/07 10:22:57;;;;;;;5.25;1.27;;;16.40;92.10;;;;;;5094889;28;20075;-62
2022/04/07 10:25:23;;;;;;;6.30;1.13;;;16.40;92.00;;;;;;5092054;28;20049;-70
2022/04/07 10:27:58;;;;;;;5.22;1.55;;;16.60;92.10;;;;;;5074762;28;20051;-64
2022/04/07 10:30:24;;;;;;;5.80;1.50;;;16.50;92.00;;;;;;5076225;28;20101;-62
2022/04/07 10:32:52;;;;;;;6.50;1.70;;;16.50;90.60;;;;;;5074667;28;20044;-62
2022/04/07 10:35:35;;;;;;;4.22;1.27;;;16.50;91.90;;;;;;5074759;28;20060;-61
2022/04/07 10:38:03;;;;;;;4.22;1.17;;;16.40;91.80;;;;;;5057765;28;20036;-62
2022/04/07 10:40:51;;;;;;;4.95;1.50;;;16.50;91.90;;;;;;5075588;28;20350;-62
2022/04/07 10:43:22;;;;;;;4.10;1.40;;;16.30;91.90;;;;;;5074581;28;20480;-64
2022/04/07 10:46:05;;;;;;;4.78;1.40;;;16.40;91.90;;;;;;5074107;28;20047;-62
2022/04/07 10:48:34;;;;;;;4.13;1.27;;;16.20;91.90;;;;;;5095786;28;20131;-63
2022/04/07 10:51:10;;;;;;;4.90;1.30;;;16.20;90.00;;;;;;5095434;28;20043;-65
2022/04/07 10:53:58;;;;;;;4.22;1.67;;;16.00;90.60;;;;;;5095385;28;20573;-64
2022/04/07 10:56:25;;;;;;;5.82;1.30;;;16.00;91.90;;;;;;5095321;28;20501;-63
2022/04/07 10:58:55;;;;;;;7.70;1.52;;;16.10;92.00;;;;;;5094046;28;20113;-63
2022/04/07 11:01:32;;;;;;;5.47;1.42;;;15.60;91.80;;;;;;5095692;28;20036;-64
2022/04/07 11:04:20;;;;;;;4.40;1.35;;;16.00;90.10;;;;;;5094444;28;20466;-62
2022/04/07 11:07:05;;;;;;;4.65;1.58;;;15.90;91.90;;;;;;5095489;28;20052;-63
2022/04/07 11:09:55;;;;;;;4.93;1.30;;;16.10;92.00;;;;;;5095359;28;20476;-63
2022/04/07 11:12:43;;;;;;;4.30;1.30;;;16.10;92.00;;;;;;5095122;28;20127;-63
2022/04/07 11:15:14;;;;;;;7.30;1.38;;;;;;;;;;5093820;28;20051;-62
2022/04/07 11:17:45;;;;;;;5.25;1.40;;;16.20;91.90;;;;;;5094127;28;20079;-62
2022/04/07 11:20:15;;;;;;;6.80;1.65;;;16.10;91.80;;;;;;5094146;28;20517;-63
2022/04/07 11:22:52;;;;;;;5.43;1.48;;;16.20;91.90;;;;;;5095231;28;20044;-66
2022/04/07 11:25:31;;;;;;;6.53;1.58;;;16.20;90.60;;;;;;5093942;28;20036;-65
2022/04/07 11:28:17;;;;;;;4.45;1.60;;;16.00;89.90;;;;;;5093378;28;20052;-64
2022/04/07 11:30:46;;;;;;;4.70;1.70;;;16.10;91.80;;;;;;5094520;28;20504;-63
2022/04/07 11:33:27;;;;;;;7.28;1.25;;;16.10;91.90;;;;;;5095233;28;20409;-62
2022/04/07 11:35:58;;;;;;;3.30;1.23;;;16.00;91.80;;;;;;5094771;28;20047;-66
2022/04/07 11:38:32;;;;;;;4.78;1.30;;;16.10;91.90;;;;;;5093798;28;20397;-64
2022/04/07 11:41:11;;;;;;;7.13;1.80;;;;;;;;;;5094738;28;20130;-63
2022/04/07 11:43:41;;;;;;;5.40;1.45;;;15.90;91.80;;;;;;5094663;28;20392;-64
2022/04/07 11:46:07;;;;;;;5.47;1.38;;;;;;;;;;5074221;28;20048;-68
2022/04/07 11:48:34;;;;;;;4.78;1.45;;;15.90;91.90;;;;;;5074168;28;20076;-62
2022/04/07 11:51:00;;;;;;;4.78;1.20;;;16.00;91.90;;;;;;5074264;28;20051;-66
2022/04/07 11:53:29;;;;;;;4.82;1.60;;;15.80;92.00;;;;;;5074240;28;20398;-63
2022/04/07 11:55:59;;;;;;;8.70;1.52;;;16.10;92.00;;;;;;5056701;28;20044;-63
2022/04/07 11:58:28;;;;;;;15.70;2.40;;;16.30;92.10;;;;;;5058946;28;20048;-66
2022/04/07 12:00:54;;;;;;;14.43;2.17;;;16.20;92.00;;;;;;5073619;28;20051;-69
2022/04/07 12:03:20;;;;;;;13.32;2.25;;;16.20;92.10;;;;;;5082961;28;20040;-68
2022/04/07 12:05:46;;;;;;;10.75;2.42;;;16.30;92.00;;;;;;5071741;28;20058;-68
2022/04/07 12:08:16;;;;;;;10.38;2.40;;;16.10;91.80;;;;;;5072721;28;20124;-62
2022/04/07 12:10:44;;;;;;;14.48;2.53;;;16.10;91.90;;;;;;5072578;28;20174;-62
2022/04/07 12:13:10;;;;;;;9.07;2.10;;;15.90;91.90;;;;;;5072572;28;20044;-62
2022/04/07 12:15:37;;;;;;;15.68;2.72;;;16.30;91.90;;;;;;5073702;28;20056;-67
2022/04/07 12:18:04;;;;;;;10.45;2.35;;;16.10;90.80;;;;;;5073892;28;20047;-64
2022/04/07 12:20:30;;;;;;;10.90;2.35;;;;;;;;;;5073327;28;20052;-64
2022/04/07 12:23:08;;;;;;;9.43;2.00;;;16.00;91.80;;;;;;5073904;28;20079;-66
2022/04/07 12:25:35;;;;;;;7.95;2.10;;;16.00;91.70;;;;;;5073587;28;20145;-63
2022/04/07 12:28:15;;;;;;;8.10;2.25;;;15.70;91.60;;;;;;5076702;28;20109;-63
2022/04/07 12:30:45;;;;;;;8.68;2.40;;;16.10;91.70;;;;;;5093643;28;20118;-64
2022/04/07 12:33:11;;;;;;;10.55;2.17;;;16.20;90.40;;;;;;5094012;28;20443;-65
2022/04/07 12:35:46;;;;;;;6.95;1.85;;;16.10;89.20;;;;;;5093457;28;20127;-64
2022/04/07 12:38:12;;;;;;;10.00;2.55;;;16.30;91.40;;;;;;5093326;28;20050;-63
2022/04/07 12:40:38;;;;;;;6.65;2.08;;;16.20;91.30;;;;;;5093116;28;20465;-72
2022/04/07 12:43:04;;;;;;;8.93;2.08;;;16.20;91.40;;;;;;5093683;28;20050;-72
2022/04/07 12:45:30;;;;;;;9.48;2.00;;;16.30;91.20;;;;;;5086334;28;20097;-69
2022/04/07 12:48:06;;;;;;;8.90;2.40;;;16.10;88.20;;;;;;5038702;28;20109;-67
2022/04/07 12:50:35;;;;;;;9.40;2.13;;;16.20;91.20;;;;;;5054968;28;20113;-68
2022/04/07 12:53:01;;;;;;;6.70;1.92;;;16.10;91.30;;;;;;5082776;28;20058;-68
2022/04/07 12:55:38;;;;;;;10.93;2.08;;;16.30;91.50;;;;;;5092173;28;20404;-70
2022/04/07 12:58:04;;;;;;;7.80;1.88;;;16.00;91.50;;;;;;5092972;28;20113;-63
2022/04/07 13:00:31;;;;;;;7.55;1.67;;;16.00;91.50;;;;;;5075198;28;20051;-63
2022/04/07 13:03:01;;;;;;;6.18;1.80;;;;;;;;;;5064465;28;20092;-62
2022/04/07 13:05:28;;;;;;;5.07;1.48;;;;;;;;;;5071445;28;20135;-61